createdAt,value
2023-08-15T00:01:26.200Z,4.72
2023-08-15T00:03:56.131Z,4.82
2023-08-15T00:06:29.088Z,4.93
2023-08-15T00:08:58.956Z,5.90
2023-08-15T00:11:28.782Z,5.82
2023-08-15T00:13:59.402Z,5.43
2023-08-15T00:16:29.331Z,5.35
2023-08-15T00:18:59.505Z,5.43
2023-08-15T00:21:31.965Z,5.93
2023-08-15T00:24:01.804Z,5.43
2023-08-15T00:26:31.686Z,5.20
2023-08-15T00:29:02.318Z,4.97
2023-08-15T00:31:32.172Z,5.47
2023-08-15T00:34:01.993Z,5.90
2023-08-15T00:36:35.195Z,5.55
2023-08-15T00:39:05.321Z,5.40
2023-08-15T00:41:35.176Z,6.05
2023-08-15T00:44:05.070Z,6.30
2023-08-15T00:46:35.443Z,6.47
2023-08-15T00:49:05.501Z,6.25
2023-08-15T00:51:38.099Z,5.88
2023-08-15T00:54:11.740Z,5.82
2023-08-15T00:56:41.677Z,7.00
2023-08-15T00:59:11.848Z,6.53
2023-08-15T01:01:41.762Z,6.50
2023-08-15T01:04:12.639Z,6.35
2023-08-15T01:06:45.156Z,6.38
2023-08-15T01:09:15.809Z,6.60
2023-08-15T01:11:54.917Z,6.88
2023-08-15T01:14:29.999Z,6.15
2023-08-15T01:17:01.077Z,7.13
2023-08-15T01:19:44.107Z,6.63
2023-08-15T01:22:20.276Z,6.40
2023-08-15T01:24:53.846Z,6.70
2023-08-15T01:27:23.810Z,6.72
2023-08-15T01:29:53.757Z,6.60
2023-08-15T01:32:30.577Z,6.95
2023-08-15T01:35:08.338Z,6.70
2023-08-15T01:37:41.477Z,6.47
2023-08-15T01:40:18.685Z,7.63
2023-08-15T01:42:50.584Z,7.20
2023-08-15T01:45:21.568Z,7.05
2023-08-15T01:47:51.544Z,7.25
2023-08-15T01:50:21.550Z,6.47
2023-08-15T01:52:51.597Z,6.75
2023-08-15T01:55:24.055Z,6.93
2023-08-15T01:57:53.943Z,7.28
2023-08-15T02:00:23.958Z,6.78
2023-08-15T02:02:53.853Z,7.60
2023-08-15T02:05:24.970Z,7.38
2023-08-15T02:07:54.889Z,7.32
2023-08-15T02:10:27.405Z,6.45
2023-08-15T02:12:57.267Z,6.93
2023-08-15T02:15:27.145Z,7.70
2023-08-15T02:17:57.121Z,8.15
2023-08-15T02:20:28.595Z,7.00
2023-08-15T02:22:58.473Z,7.35
2023-08-15T02:25:31.168Z,7.40
2023-08-15T02:28:01.010Z,6.90
2023-08-15T02:30:31.005Z,7.40
2023-08-15T02:33:00.987Z,7.65
2023-08-15T02:35:30.875Z,7.30
2023-08-15T02:38:00.757Z,7.20
2023-08-15T02:40:33.187Z,6.38
2023-08-15T02:43:03.048Z,7.50
2023-08-15T02:45:32.931Z,7.72
2023-08-15T02:48:02.869Z,8.10
2023-08-15T02:50:32.740Z,7.00
2023-08-15T02:53:02.600Z,9.40
2023-08-15T02:55:36.836Z,6.07
2023-08-15T02:58:08.196Z,7.22
2023-08-15T03:00:38.895Z,6.80
2023-08-15T03:03:08.869Z,6.63
2023-08-15T03:05:41.016Z,6.70
2023-08-15T03:08:10.863Z,6.18
2023-08-15T03:10:43.965Z,6.28
2023-08-15T03:13:13.823Z,7.20
2023-08-15T03:15:43.706Z,6.72
2023-08-15T03:18:13.596Z,6.82
2023-08-15T03:20:45.757Z,6.70
2023-08-15T03:23:15.632Z,6.80
2023-08-15T03:25:48.056Z,7.68
2023-08-15T03:28:17.918Z,7.15
2023-08-15T03:30:47.759Z,7.07
2023-08-15T03:33:18.294Z,6.78
2023-08-15T03:35:49.104Z,6.68
2023-08-15T03:38:19.867Z,6.70
2023-08-15T03:40:53.531Z,6.32
2023-08-15T03:43:23.379Z,7.07
2023-08-15T03:45:54.272Z,6.22
2023-08-15T03:48:24.170Z,6.68
2023-08-15T03:50:57.366Z,7.30
2023-08-15T03:53:27.176Z,7.20
2023-08-15T03:55:59.636Z,7.60
2023-08-15T03:58:29.696Z,6.65
2023-08-15T04:00:59.843Z,6.47
2023-08-15T04:03:29.698Z,7.03
2023-08-15T04:05:59.728Z,7.38
2023-08-15T04:08:29.666Z,6.60
2023-08-15T04:11:02.122Z,6.60
2023-08-15T04:13:31.984Z,6.75
2023-08-15T04:16:01.859Z,7.88
2023-08-15T04:18:31.862Z,6.88
2023-08-15T04:21:01.708Z,6.32
2023-08-15T04:23:31.941Z,6.60
2023-08-15T04:26:04.658Z,6.47
2023-08-15T04:28:34.540Z,6.43
2023-08-15T04:31:06.225Z,7.20
2023-08-15T04:33:36.098Z,6.93
2023-08-15T04:36:05.982Z,6.72
2023-08-15T04:38:35.835Z,6.53
2023-08-15T04:41:08.889Z,6.60
2023-08-15T04:43:41.668Z,6.40
2023-08-15T04:46:11.570Z,6.68
2023-08-15T04:48:44.455Z,6.15
2023-08-15T04:51:15.086Z,7.07
2023-08-15T04:53:44.968Z,6.15
2023-08-15T04:56:17.403Z,6.47
2023-08-15T04:58:47.319Z,5.78
2023-08-15T05:01:17.320Z,5.75
2023-08-15T05:03:47.236Z,6.07
2023-08-15T05:06:17.846Z,6.28
2023-08-15T05:08:47.709Z,5.97
2023-08-15T05:11:20.974Z,6.45
2023-08-15T05:13:50.854Z,6.60
2023-08-15T05:16:20.736Z,7.25
2023-08-15T05:18:53.732Z,6.32
2023-08-15T05:21:23.630Z,5.47
2023-08-15T05:23:53.476Z,5.80
2023-08-15T05:26:26.093Z,5.38
2023-08-15T05:28:55.973Z,5.35
2023-08-15T05:31:26.473Z,6.00
2023-08-15T05:33:56.326Z,5.25
2023-08-15T05:36:29.133Z,4.70
2023-08-15T05:38:58.967Z,4.72
2023-08-15T05:41:31.464Z,4.65
2023-08-15T05:44:01.510Z,4.40
2023-08-15T05:46:31.377Z,4.30
2023-08-15T05:49:01.224Z,4.40
2023-08-15T05:51:31.101Z,4.10
2023-08-15T05:54:00.982Z,4.38
2023-08-15T05:56:33.474Z,4.60
2023-08-15T05:59:03.340Z,3.63
2023-08-15T06:01:33.250Z,4.18
2023-08-15T06:04:03.456Z,3.45
2023-08-15T06:06:33.816Z,3.10
2023-08-15T06:09:04.972Z,3.30
2023-08-15T06:11:37.508Z,3.13
2023-08-15T06:14:07.622Z,3.10
2023-08-15T06:16:37.544Z,3.50
2023-08-15T06:19:08.340Z,3.83
2023-08-15T06:21:38.181Z,3.10
2023-08-15T06:24:09.317Z,2.88
2023-08-15T06:26:42.843Z,2.95
2023-08-15T06:29:13.288Z,3.30
2023-08-15T06:31:43.326Z,3.33
2023-08-15T06:34:13.212Z,2.90
2023-08-15T06:36:43.203Z,3.70
2023-08-15T06:39:13.072Z,3.80
2023-08-15T06:41:45.854Z,3.25
2023-08-15T06:44:15.705Z,3.80
2023-08-15T06:46:45.639Z,3.33
2023-08-15T06:49:16.365Z,3.38
2023-08-15T06:51:46.230Z,4.35
2023-08-15T06:54:16.370Z,3.70
2023-08-15T06:56:48.909Z,3.47
2023-08-15T06:59:20.408Z,3.38
2023-08-15T07:01:50.313Z,3.42
2023-08-15T07:04:20.177Z,2.70
2023-08-15T07:06:50.165Z,2.80
2023-08-15T07:09:20.065Z,2.95
2023-08-15T07:11:52.538Z,3.10
2023-08-15T07:14:22.383Z,2.67
2023-08-15T07:16:52.686Z,2.65
2023-08-15T07:19:25.358Z,2.95
2023-08-15T07:21:55.226Z,2.70
2023-08-15T07:24:26.006Z,2.50
2023-08-15T07:26:58.554Z,2.58
2023-08-15T07:29:28.435Z,2.33
2023-08-15T07:31:58.309Z,2.13
2023-08-15T07:34:28.304Z,2.05
2023-08-15T07:36:58.212Z,1.55
2023-08-15T07:39:28.067Z,2.15
2023-08-15T07:42:00.679Z,2.58
2023-08-15T07:44:31.637Z,2.00
2023-08-15T07:47:01.538Z,1.77
2023-08-15T07:49:39.207Z,1.60
2023-08-15T07:52:09.532Z,1.70
2023-08-15T07:54:39.455Z,2.00
2023-08-15T07:57:11.991Z,2.33
2023-08-15T07:59:43.956Z,1.80
2023-08-15T08:02:14.223Z,2.00
2023-08-15T08:04:45.391Z,2.38
2023-08-15T08:07:15.324Z,2.45
2023-08-15T08:09:45.305Z,2.30
2023-08-15T08:12:17.763Z,2.15
2023-08-15T08:14:57.232Z,2.10
2023-08-15T08:17:28.159Z,1.63
2023-08-15T08:19:58.316Z,1.90
2023-08-15T08:22:28.368Z,1.77
2023-08-15T08:24:58.220Z,1.67
2023-08-15T08:27:33.088Z,1.90
2023-08-15T08:30:03.065Z,1.80
2023-08-15T08:32:38.391Z,1.35
2023-08-15T08:35:09.617Z,1.70
2023-08-15T08:37:39.602Z,2.47
2023-08-15T08:40:10.858Z,1.80
2023-08-15T08:42:44.509Z,1.48
2023-08-15T08:45:15.112Z,1.42
2023-08-15T08:47:45.567Z,1.60
2023-08-15T08:50:15.615Z,1.80
2023-08-15T08:52:50.149Z,1.40
2023-08-15T08:55:21.062Z,1.60
2023-08-15T08:57:56.494Z,1.48
2023-08-15T09:00:33.622Z,1.30
2023-08-15T09:03:03.638Z,1.50
2023-08-15T09:05:33.743Z,1.50
2023-08-15T09:08:04.556Z,1.33
2023-08-15T09:10:34.428Z,1.15
2023-08-15T09:13:07.970Z,1.40
2023-08-15T09:15:37.966Z,1.20
2023-08-15T09:18:09.356Z,1.40
2023-08-15T09:20:48.418Z,1.52
2023-08-15T09:23:19.919Z,1.50
2023-08-15T09:25:56.298Z,1.48
2023-08-15T09:28:28.862Z,1.50
2023-08-15T09:31:05.415Z,1.45
2023-08-15T09:33:36.456Z,1.30
2023-08-15T09:36:07.481Z,1.40
2023-08-15T09:38:40.182Z,1.40
2023-08-15T09:41:22.632Z,1.30
2023-08-15T09:44:00.967Z,1.88
2023-08-15T09:46:32.131Z,1.10
2023-08-15T09:49:02.763Z,1.15
2023-08-15T09:51:34.480Z,1.70
2023-08-15T09:54:08.450Z,1.35
2023-08-15T09:56:38.679Z,1.30
2023-08-15T09:59:11.259Z,1.40
2023-08-15T10:01:47.866Z,1.80
2023-08-15T10:04:20.276Z,1.30
2023-08-15T10:06:50.508Z,1.40
2023-08-15T10:09:22.342Z,1.70
2023-08-15T10:11:52.434Z,1.67
2023-08-15T10:14:28.220Z,1.70
2023-08-15T10:16:58.601Z,1.67
2023-08-15T10:19:34.164Z,1.83
2023-08-15T10:22:06.941Z,1.63
2023-08-15T10:24:38.273Z,1.40
2023-08-15T10:27:09.002Z,1.38
2023-08-15T10:29:55.664Z,1.00
2023-08-15T10:32:29.879Z,1.02
2023-08-15T10:35:03.069Z,1.30
2023-08-15T10:37:34.820Z,1.15
2023-08-15T10:40:12.462Z,1.20
2023-08-15T10:43:11.279Z,1.20
2023-08-15T10:45:51.558Z,1.10
2023-08-15T10:49:01.658Z,1.17
2023-08-15T10:51:35.324Z,1.23
2023-08-15T10:54:07.853Z,1.38
2023-08-15T10:56:39.319Z,1.20
2023-08-15T10:59:13.136Z,1.27
2023-08-15T11:01:48.401Z,1.40
2023-08-15T11:04:20.640Z,1.35
2023-08-15T11:06:54.073Z,1.33
2023-08-15T11:09:31.676Z,1.30
2023-08-15T11:12:09.027Z,1.45
2023-08-15T11:14:38.939Z,1.65
2023-08-15T11:17:11.928Z,1.50
2023-08-15T11:19:42.093Z,1.33
2023-08-15T11:22:11.977Z,1.23
2023-08-15T11:24:41.829Z,1.60
2023-08-15T11:27:11.749Z,1.40
2023-08-15T11:29:41.619Z,1.73
2023-08-15T11:32:14.186Z,1.42
2023-08-15T11:34:45.188Z,1.20
2023-08-15T11:37:15.100Z,1.50
2023-08-15T11:39:44.985Z,1.65
2023-08-15T11:42:14.938Z,1.38
2023-08-15T11:44:45.080Z,1.40
2023-08-15T11:47:23.789Z,1.38
2023-08-15T11:49:53.875Z,1.00
2023-08-15T11:52:23.967Z,1.25
2023-08-15T11:54:54.251Z,1.55
2023-08-15T11:57:39.319Z,1.30
2023-08-15T12:00:10.898Z,1.50
2023-08-15T12:02:46.464Z,1.30
2023-08-15T12:05:18.069Z,1.40
2023-08-15T12:07:48.214Z,1.45
2023-08-15T12:10:19.204Z,1.40
2023-08-15T12:12:50.526Z,1.58
2023-08-15T12:15:20.371Z,1.70
2023-08-15T12:17:53.252Z,1.30
2023-08-15T12:20:23.283Z,1.25
2023-08-15T12:22:53.148Z,1.10
2023-08-15T12:25:23.136Z,1.08
2023-08-15T12:27:52.984Z,1.13
2023-08-15T12:30:24.600Z,1.20
2023-08-15T12:32:57.109Z,1.38
2023-08-15T12:35:27.636Z,1.55
2023-08-15T12:37:57.500Z,1.60
2023-08-15T12:40:31.096Z,1.30
2023-08-15T12:43:01.506Z,1.50
2023-08-15T12:45:32.307Z,1.30
2023-08-15T12:48:04.954Z,1.52
2023-08-15T12:50:35.022Z,1.45
2023-08-15T12:53:05.187Z,1.42
2023-08-15T12:55:35.096Z,1.35
2023-08-15T12:58:04.968Z,1.23
2023-08-15T13:00:34.988Z,1.20
2023-08-15T13:03:08.060Z,1.20
2023-08-15T13:05:38.076Z,1.27
2023-08-15T13:08:08.250Z,1.48
2023-08-15T13:10:39.047Z,1.20
2023-08-15T13:13:10.426Z,1.52
2023-08-15T13:15:40.455Z,1.33
2023-08-15T13:18:13.042Z,1.55
2023-08-15T13:20:43.836Z,1.70
2023-08-15T13:23:16.071Z,1.70
2023-08-15T13:25:45.944Z,1.70
2023-08-15T13:28:15.761Z,1.60
2023-08-15T13:30:48.321Z,1.52
2023-08-15T13:33:21.008Z,1.65
2023-08-15T13:35:50.943Z,1.30
2023-08-15T13:38:20.900Z,1.40
2023-08-15T13:40:50.822Z,1.40
2023-08-15T13:43:20.726Z,1.13
2023-08-15T13:45:50.588Z,1.60
2023-08-15T13:48:23.484Z,1.65
2023-08-15T13:50:55.830Z,1.35
2023-08-15T13:53:25.821Z,1.38
2023-08-15T13:55:56.694Z,1.75
2023-08-15T13:58:27.839Z,1.60
2023-08-15T14:00:57.751Z,1.30
2023-08-15T14:03:31.145Z,1.60
2023-08-15T14:06:01.446Z,1.67
2023-08-15T14:08:32.164Z,1.30
2023-08-15T14:11:02.637Z,1.30
2023-08-15T14:13:34.074Z,1.48
2023-08-15T14:16:03.926Z,1.42
2023-08-15T14:18:36.496Z,1.13
2023-08-15T14:21:13.363Z,1.10
2023-08-15T14:23:45.772Z,1.30
2023-08-15T14:26:15.684Z,1.38
2023-08-15T14:28:45.620Z,1.00
2023-08-15T14:31:15.546Z,1.27
2023-08-15T14:33:48.010Z,1.38
2023-08-15T14:36:17.878Z,1.25
2023-08-15T14:38:47.848Z,1.35
2023-08-15T14:41:17.766Z,1.20
2023-08-15T14:43:47.638Z,1.20
2023-08-15T14:46:17.589Z,1.50
2023-08-15T14:48:50.104Z,1.55
2023-08-15T14:51:20.038Z,1.40
2023-08-15T14:53:49.895Z,1.25
2023-08-15T14:56:19.799Z,1.20
2023-08-15T14:58:49.802Z,1.08
2023-08-15T15:01:19.694Z,1.25
2023-08-15T15:03:52.257Z,0.90
2023-08-15T15:06:22.200Z,1.00
2023-08-15T15:08:53.474Z,1.10
2023-08-15T15:11:24.074Z,1.20
2023-08-15T15:13:53.933Z,1.10
2023-08-15T15:16:23.865Z,1.00
2023-08-15T15:18:58.551Z,0.85
2023-08-15T15:21:28.389Z,1.00
2023-08-15T15:23:58.239Z,1.10
2023-08-15T15:26:28.128Z,1.10
2023-08-15T15:28:58.221Z,1.00
2023-08-15T15:31:28.213Z,1.20
2023-08-15T15:34:00.687Z,1.00
2023-08-15T15:36:30.513Z,0.80
2023-08-15T15:39:00.384Z,1.02
2023-08-15T15:41:30.341Z,1.15
2023-08-15T15:44:00.242Z,1.10
2023-08-15T15:46:35.028Z,0.90
2023-08-15T15:49:13.773Z,1.02
2023-08-15T15:51:43.652Z,1.20
2023-08-15T15:54:13.701Z,0.90
2023-08-15T15:56:43.650Z,0.90
2023-08-15T15:59:14.000Z,0.80
2023-08-15T16:01:44.310Z,1.10
2023-08-15T16:04:16.849Z,0.85
2023-08-15T16:06:46.757Z,1.10
2023-08-15T16:09:16.677Z,1.00
2023-08-15T16:11:46.512Z,1.00
2023-08-15T16:14:16.759Z,1.13
2023-08-15T16:16:47.160Z,0.80
2023-08-15T16:19:19.806Z,0.98
2023-08-15T16:21:49.677Z,1.05
2023-08-15T16:24:19.498Z,1.10
2023-08-15T16:26:50.456Z,1.02
2023-08-15T16:29:20.518Z,0.90
2023-08-15T16:31:50.438Z,1.20
2023-08-15T16:34:22.945Z,1.02
2023-08-15T16:36:52.843Z,1.00
2023-08-15T16:39:22.716Z,1.10
2023-08-15T16:41:52.640Z,0.80
2023-08-15T16:44:23.021Z,1.10
2023-08-15T16:46:52.896Z,1.20
2023-08-15T16:49:25.541Z,1.40
2023-08-15T16:51:55.441Z,1.20
2023-08-15T16:54:25.364Z,1.05
2023-08-15T16:56:55.296Z,1.00
2023-08-15T16:59:25.176Z,1.13
2023-08-15T17:01:56.577Z,1.23
2023-08-15T17:04:29.047Z,1.17
2023-08-15T17:06:58.914Z,1.10
2023-08-15T17:09:31.107Z,1.60
2023-08-15T17:12:01.759Z,1.70
2023-08-15T17:14:31.599Z,1.80
2023-08-15T17:17:01.476Z,1.90
2023-08-15T17:19:34.106Z,1.70
2023-08-15T17:22:03.946Z,1.52
2023-08-15T17:24:33.784Z,1.52
2023-08-15T17:27:03.681Z,1.60
2023-08-15T17:29:33.582Z,1.17
2023-08-15T17:32:08.181Z,1.40
2023-08-15T17:34:40.814Z,1.00
2023-08-15T17:37:10.920Z,1.52
2023-08-15T17:39:40.813Z,1.50
2023-08-15T17:42:10.801Z,1.27
2023-08-15T17:44:40.713Z,1.20
2023-08-15T17:47:10.769Z,1.30
2023-08-15T17:49:44.704Z,1.27
2023-08-15T17:52:14.629Z,1.10
2023-08-15T17:54:47.242Z,1.17
2023-08-15T17:57:17.098Z,1.30
2023-08-15T17:59:46.965Z,1.10
2023-08-15T18:02:16.874Z,1.20
2023-08-15T18:04:49.466Z,1.35
2023-08-15T18:07:20.810Z,1.05
2023-08-15T18:09:50.660Z,1.05
2023-08-15T18:12:20.811Z,1.05
2023-08-15T18:14:50.866Z,1.17
2023-08-15T18:17:20.719Z,0.98
2023-08-15T18:19:54.569Z,1.25
2023-08-15T18:22:24.753Z,1.13
2023-08-15T18:24:54.803Z,1.30
2023-08-15T18:27:24.663Z,1.00
2023-08-15T18:29:55.853Z,1.20
2023-08-15T18:32:26.085Z,1.20
2023-08-15T18:34:58.906Z,1.60
2023-08-15T18:37:28.761Z,1.40
2023-08-15T18:39:58.830Z,1.40
2023-08-15T18:42:29.217Z,1.30
2023-08-15T18:44:59.050Z,2.00
2023-08-15T18:47:28.966Z,1.70
2023-08-15T18:50:01.487Z,1.65
2023-08-15T18:52:31.747Z,1.90
2023-08-15T18:55:01.910Z,1.80
2023-08-15T18:57:31.772Z,2.13
2023-08-15T19:00:03.618Z,2.00
2023-08-15T19:02:33.550Z,2.30
2023-08-15T19:05:06.534Z,2.63
2023-08-15T19:07:36.863Z,2.42
2023-08-15T19:10:07.362Z,2.00
2023-08-15T19:12:37.224Z,2.30
2023-08-15T19:15:08.397Z,1.83
2023-08-15T19:17:38.340Z,1.90
2023-08-15T19:20:13.701Z,2.15
2023-08-15T19:22:43.549Z,1.90
2023-08-15T19:25:13.901Z,2.10
2023-08-15T19:27:43.803Z,2.15
2023-08-15T19:30:14.893Z,2.60
2023-08-15T19:32:45.116Z,2.80
2023-08-15T19:35:17.586Z,3.15
2023-08-15T19:37:47.520Z,2.35
2023-08-15T19:40:17.393Z,1.85
2023-08-15T19:42:48.449Z,2.20
2023-08-15T19:45:18.300Z,2.03
2023-08-15T19:47:48.182Z,2.10
2023-08-15T19:50:20.716Z,2.60
2023-08-15T19:52:50.538Z,2.20
2023-08-15T19:55:20.431Z,2.17
2023-08-15T19:57:50.355Z,2.60
2023-08-15T20:00:21.043Z,2.60
2023-08-15T20:02:51.066Z,2.80
2023-08-15T20:05:23.661Z,2.65
2023-08-15T20:07:53.485Z,2.63
2023-08-15T20:10:24.677Z,2.88
2023-08-15T20:12:55.988Z,2.75
2023-08-15T20:15:27.854Z,2.30
2023-08-15T20:17:57.758Z,2.50
2023-08-15T20:20:31.687Z,2.42
2023-08-15T20:23:01.544Z,2.90
2023-08-15T20:25:31.453Z,2.92
2023-08-15T20:28:01.383Z,3.20
2023-08-15T20:30:31.492Z,3.65
2023-08-15T20:33:01.398Z,3.00
2023-08-15T20:35:33.940Z,3.40
2023-08-15T20:38:03.796Z,3.30
2023-08-15T20:40:33.825Z,3.05
2023-08-15T20:43:03.679Z,2.72
2023-08-15T20:45:33.534Z,3.00
2023-08-15T20:48:03.509Z,2.78
2023-08-15T20:50:36.031Z,3.00
2023-08-15T20:53:05.892Z,3.13
2023-08-15T20:55:35.734Z,3.00
2023-08-15T20:58:07.081Z,2.80
2023-08-15T21:00:36.999Z,2.88
2023-08-15T21:03:07.877Z,2.80
2023-08-15T21:05:40.938Z,3.08
2023-08-15T21:08:11.179Z,3.40
2023-08-15T21:10:41.043Z,2.80
2023-08-15T21:13:10.866Z,3.30
2023-08-15T21:15:40.747Z,2.88
2023-08-15T21:18:10.662Z,3.10
2023-08-15T21:20:45.875Z,3.78
2023-08-15T21:23:15.780Z,3.95
2023-08-15T21:25:46.221Z,3.58
2023-08-15T21:28:17.364Z,4.00
2023-08-15T21:30:47.303Z,3.47
2023-08-15T21:33:18.813Z,3.75
2023-08-15T21:35:51.528Z,3.55
2023-08-15T21:38:21.439Z,4.32
2023-08-15T21:40:52.560Z,4.63
2023-08-15T21:43:22.380Z,4.00
2023-08-15T21:45:52.343Z,4.70
2023-08-15T21:48:22.249Z,5.10
2023-08-15T21:50:54.740Z,5.25
2023-08-15T21:53:24.638Z,5.47
2023-08-15T21:55:54.601Z,4.72
2023-08-15T21:58:24.544Z,4.72
2023-08-15T22:00:54.478Z,5.20
2023-08-15T22:03:24.575Z,4.50
2023-08-15T22:05:57.148Z,4.80
2023-08-15T22:08:26.995Z,4.90
2023-08-15T22:10:56.888Z,4.93
2023-08-15T22:13:26.768Z,5.22
2023-08-15T22:15:56.769Z,4.80
2023-08-15T22:18:27.052Z,5.30
2023-08-15T22:21:00.077Z,5.18
2023-08-15T22:23:29.976Z,5.40
2023-08-15T22:25:59.822Z,4.82
2023-08-15T22:28:29.698Z,4.57
2023-08-15T22:30:59.592Z,4.65
2023-08-15T22:33:29.529Z,4.90
2023-08-15T22:36:01.982Z,5.53
2023-08-15T22:38:31.845Z,5.63
2023-08-15T22:41:01.673Z,6.07
2023-08-15T22:43:31.959Z,5.43
2023-08-15T22:45:59.293Z,5.75
2023-08-15T22:48:29.511Z,5.63
2023-08-15T22:51:02.010Z,5.47
2023-08-15T22:53:32.815Z,6.18
2023-08-15T22:56:04.677Z,5.28
2023-08-15T22:58:34.499Z,4.82
2023-08-15T23:01:04.751Z,5.50
2023-08-15T23:03:34.658Z,5.90
2023-08-15T23:06:09.238Z,5.97
2023-08-15T23:08:39.096Z,5.85
2023-08-15T23:11:09.300Z,5.97
2023-08-15T23:13:39.138Z,5.70
2023-08-15T23:16:09.166Z,5.82
2023-08-15T23:18:39.038Z,5.93
2023-08-15T23:21:12.853Z,6.43
2023-08-15T23:23:44.380Z,5.47
2023-08-15T23:26:14.225Z,5.65
2023-08-15T23:28:44.094Z,6.10
2023-08-15T23:31:15.580Z,5.03
2023-08-15T23:33:46.324Z,5.25
2023-08-15T23:36:18.791Z,5.72
2023-08-15T23:38:48.643Z,5.18
2023-08-15T23:41:18.463Z,5.72
2023-08-15T23:43:48.297Z,5.65
2023-08-15T23:46:18.181Z,5.80
2023-08-15T23:48:48.133Z,5.00
2023-08-15T23:51:22.039Z,5.10
2023-08-15T23:53:51.992Z,4.85
2023-08-15T23:56:21.869Z,5.60
2023-08-15T23:58:51.813Z,5.20
